Lomond, Canada
Current Conditions -  °F | °C
As of 12:00 PM on Thursday 30 Oct 2014 (Local Time) from CYDF Reporting Station
Light Rain Light Rain  
Wind Chill: 54°   Ceiling: 1400
Heat Index: 54°   Visibility: 12mi
Dew Point: 52°   Wind: 7mph
Humidity: 94%   Direction: 250°WSW
Pressure: 29.56"   Gusts: NA
Location:  49.45°N, 57.93°W
Report Text: CYDF 301400Z 25006KT 12SM -RA BKN014 OVC030 12/11 A2956 RMK SC5SC3 SLP009 DENSITY ALT 100FT
Loading
Personal Weather Stations






























Interactive Weather Map New forecast layout! Learn more

10-Day Weather Forecast

Advertisements
Track Severe Weather on mobile